Orting, WA (98360)

3:56 AM PDT on September 02, 2015 (GMT -0700)
Crocker Hill | | Change Station
CLOSE
Current Station
Personal Weather Station
Location: Orting, WA
Elevation: 625 ft
Nearby Weather Stations

Elev 625 ft 47.06 °N, 122.18 °W | Updated 5 seconds ago

Overcast
Overcast
53.6 °F
Feels Like 53.6 °F
N
0.0
Wind Variable Wind from East
Gusts 2.0 mph

Today
High -- | Low -- °F
--% Chance of Precip.
Yesterday
High -- | Low -- °F
Precip. -- in
6:29 AM 7:46 PM
Waning Gibbous, 81% visible
Pressure 29.84 in
Visibility 10.0 miles
Clouds Few 2300 ft
Mostly Cloudy 6500 ft
Overcast 8000 ft
Dew Point 52 °F
Humidity 95%
Rainfall 0.00 in
Snow Depth Not available.
UV 0 out of 12
Pollen .40 out of 12
Air Quality Not available.
Flu Activity Not available.
METAR KPLU 021035Z AUTO 00000KT 10SM FEW023 BKN065 OVC080 13/13 A2984 RMK AO2
Pressure 29.84 in
Visibility 10.0 miles
Clouds Few 2300 ft
Mostly Cloudy 6500 ft
Overcast 8000 ft
Dew Point 52 °F
Humidity 95%
Rainfall 0.00 in
Snow Depth Not available.
UV 0 out of 12
Pollen .40 out of 12
Air Quality Not available.
Flu Activity Not available.
METAR KPLU 021035Z AUTO 00000KT 10SM FEW023 BKN065 OVC080 13/13 A2984 RMK AO2

10-Day Weather Forecast

×

Almanac

Astronomy

Sep. 02, 2015 Rise Set
Actual Time
Civil Twilight
Nautical Twilight
Astronomical Twilight
Moon
Length of Visible Light
Length of Day
Tomorrow will be .
, % of the Moon is Illuminated

Today's Extremes

State Highs State Lows

Community

WunderPhotos

Upload Photos

1,851,734 photos uploaded!

WunderBlogs® & News

Nearby

Air Quality

  Air Quality AQ Index Pollutant
Not available.

Snow Depth

Station Depth Elevation

Earthquake Activity

City Distance Mag. Time & Date
Minimum magnitude displayed is 2.5.

Coastal Water Temperatures

Place Temperature

Stations

Nearby Weather Stations

Station Location Temp. Windchill Dew Point Humidity Wind Precip. Elev Updated Type